Language selection

My Weather Profile Weather Topics  | 

Resolution - eastern half: Past 24 Hour Conditions

 

Nain Airport

04:00 PM ADT 20 October 2021
Disclaimer

This table is a summary of hourly weather conditions for the past 24 hours.
Please note that these observations might not always be representative of weather conditions over their associated marine area.

Date / Time
(ADT)
Wind(knots) Conditions Visibility(km) Pressure(kPa) Air tempC) Relative humidity(%) Dew pointC)
20 October 2021
16:00 E 14 Light Rainshower 21 101.9 5 92 4
15:00 E 16 Light Drizzle 3 101.9 5 96 4
14:00 E 14 Light Drizzle 3 101.9 5 97 4
13:00 E 16 Light Drizzle 3 101.9 5 97 4
12:00 ESE 14 Light Rainshower 6 102.0 5 96 4
11:00 E 15 gust 20 Light Rainshower 19 102.0 5 94 4
10:00 E 16 Light Rainshower 16 102.0 5 94 4
9:00 E 17 Light Rainshower 16 102.0 5 95 4
8:00 ESE 13 Light Rainshower 16 101.9 5 94 4
7:00 E 13 gust 18 Light Rainshower 19 101.9 5 95 4
6:00 E 15 Light Rainshower 8 101.9 5 95 4
5:00 E 16 gust 21 Light Rainshower 6 101.9 5 94 4
4:00 N/A N/A N/A 101.9 5 92 4
3:00 N/A N/A N/A 101.9 5 91 4
2:00 N/A N/A N/A 102.0 5 90 3
1:00 N/A N/A N/A 102.0 5 92 4
0:00 N/A N/A N/A 101.9 5 88 3
19 October 2021
23:00 N/A N/A N/A 102.0 5 83 2
22:00 N/A N/A N/A 101.9 4 84 2
21:00 N/A N/A N/A 101.9 4 84 2
20:00 E 15 Mostly Cloudy 24 101.8 4 85 2
19:00 E 15 gust 20 Light Rainshower 10 101.8 4 87 2
18:00 E 16 gust 21 Mostly Cloudy 24 101.7 4 89 2
17:00 E 17 gust 23 Light Rainshower 24 101.7 4 87 2
16:00 E 20 Mostly Cloudy 24 101.7 4 86 2

Zoom-in to make a selection

Map of Atlantic - Labrador marine weather areas Kangiqsualujjuaq Airport Cape Kakkiviak Cape Kiglapait Cartwright Airport CFB Goose Bay Hopedale Mary's Harbour Nain Airport Makkovik Airport Saglek Tukialik Bay
Legend:
buoy Buoy
land station Land Station

Atlantic - Labrador Area

Another Region

What we are doing

Date modified: